sensor_id;sensor_type;location;lat;lon;timestamp;pressure;altitude;pressure_sealevel;temperature;humidity
84283;BME280;74440;52.600;21.450;2023-12-04T00:02:44;101800;;;-1.35;76
84283;BME280;74440;52.600;21.450;2023-12-04T00:06:45;101800;;;-1.27;76
84283;BME280;74440;52.600;21.450;2023-12-04T00:10:47;101800;;;-1.21;76
84283;BME280;74440;52.600;21.450;2023-12-04T00:14:48;101900;;;-1.13;75
84283;BME280;74440;52.600;21.450;2023-12-04T00:18:50;101900;;;-1.10;75
84283;BME280;74440;52.600;21.450;2023-12-04T00:22:51;101900;;;-1.03;75
84283;BME280;74440;52.600;21.450;2023-12-04T00:26:53;101900;;;-0.98;75
84283;BME280;74440;52.600;21.450;2023-12-04T00:30:54;101900;;;-0.96;75
84283;BME280;74440;52.600;21.450;2023-12-04T00:34:56;101900;;;-0.94;75
84283;BME280;74440;52.600;21.450;2023-12-04T00:39:14;101900;;;-0.87;75
84283;BME280;74440;52.600;21.450;2023-12-04T00:43:15;101900;;;-0.84;75
84283;BME280;74440;52.600;21.450;2023-12-04T00:47:17;101900;;;-0.82;75
84283;BME280;74440;52.600;21.450;2023-12-04T00:55:53;101900;;;-0.84;75
84283;BME280;74440;52.600;21.450;2023-12-04T00:59:55;101900;;;-0.83;75
84283;BME280;74440;52.600;21.450;2023-12-04T01:03:59;101900;;;-0.83;75
84283;BME280;74440;52.600;21.450;2023-12-04T01:08:01;101900;;;-0.80;75
84283;BME280;74440;52.600;21.450;2023-12-04T01:12:03;101900;;;-0.74;75
84283;BME280;74440;52.600;21.450;2023-12-04T01:16:06;101900;;;-0.70;75
84283;BME280;74440;52.600;21.450;2023-12-04T01:20:17;101900;;;-0.69;75
84283;BME280;74440;52.600;21.450;2023-12-04T01:24:19;101900;;;-0.69;75
84283;BME280;74440;52.600;21.450;2023-12-04T01:28:20;101900;;;-0.68;75
84283;BME280;74440;52.600;21.450;2023-12-04T01:32:22;101900;;;-0.68;75
84283;BME280;74440;52.600;21.450;2023-12-04T01:36:23;101900;;;-0.69;75
84283;BME280;74440;52.600;21.450;2023-12-04T01:40:26;101900;;;-0.67;75
84283;BME280;74440;52.600;21.450;2023-12-04T01:44:28;101900;;;-0.67;75
84283;BME280;74440;52.600;21.450;2023-12-04T01:48:30;101900;;;-0.62;75
84283;BME280;74440;52.600;21.450;2023-12-04T01:52:32;101900;;;-0.60;75
84283;BME280;74440;52.600;21.450;2023-12-04T01:56:47;101900;;;-0.58;75
84283;BME280;74440;52.600;21.450;2023-12-04T02:00:50;101900;;;-0.56;75
84283;BME280;74440;52.600;21.450;2023-12-04T02:04:55;101900;;;-0.53;75
84283;BME280;74440;52.600;21.450;2023-12-04T02:08:57;101900;;;-0.53;75
84283;BME280;74440;52.600;21.450;2023-12-04T02:12:59;101900;;;-0.50;75
84283;BME280;74440;52.600;21.450;2023-12-04T02:17:01;101900;;;-0.48;75
84283;BME280;74440;52.600;21.450;2023-12-04T02:21:05;101900;;;-0.49;74
84283;BME280;74440;52.600;21.450;2023-12-04T02:25:08;101900;;;-0.47;74
84283;BME280;74440;52.600;21.450;2023-12-04T02:29:14;101900;;;-0.48;73
84283;BME280;74440;52.600;21.450;2023-12-04T02:33:22;101900;;;-0.47;73
84283;BME280;74440;52.600;21.450;2023-12-04T02:37:26;101900;;;-0.44;73
84283;BME280;74440;52.600;21.450;2023-12-04T02:41:28;101900;;;-0.48;73
84283;BME280;74440;52.600;21.450;2023-12-04T02:45:29;101900;;;-0.43;73
84283;BME280;74440;52.600;21.450;2023-12-04T02:49:31;101900;;;-0.37;73
84283;BME280;74440;52.600;21.450;2023-12-04T02:53:32;101900;;;-0.34;72
84283;BME280;74440;52.600;21.450;2023-12-04T02:57:34;101900;;;-0.34;72
84283;BME280;74440;52.600;21.450;2023-12-04T03:01:35;101900;;;-0.29;71
84283;BME280;74440;52.600;21.450;2023-12-04T03:05:37;101900;;;-0.34;72
84283;BME280;74440;52.600;21.450;2023-12-04T03:09:49;101900;;;-0.34;72
84283;BME280;74440;52.600;21.450;2023-12-04T03:13:51;101900;;;-0.32;72
84283;BME280;74440;52.600;21.450;2023-12-04T03:17:52;101900;;;-0.29;72
84283;BME280;74440;52.600;21.450;2023-12-04T03:21:53;101900;;;-0.29;72
84283;BME280;74440;52.600;21.450;2023-12-04T03:25:55;101900;;;-0.30;72
84283;BME280;74440;52.600;21.450;2023-12-04T03:29:57;101900;;;-0.29;72
84283;BME280;74440;52.600;21.450;2023-12-04T03:33:58;101900;;;-0.29;72
84283;BME280;74440;52.600;21.450;2023-12-04T03:38:00;102000;;;-0.34;72
84283;BME280;74440;52.600;21.450;2023-12-04T03:42:01;102000;;;-0.42;72
84283;BME280;74440;52.600;21.450;2023-12-04T03:46:19;102000;;;-0.44;72
84283;BME280;74440;52.600;21.450;2023-12-04T03:50:22;102000;;;-0.44;72
84283;BME280;74440;52.600;21.450;2023-12-04T03:54:23;101900;;;-0.48;72
84283;BME280;74440;52.600;21.450;2023-12-04T03:58:25;102000;;;-0.53;72
84283;BME280;74440;52.600;21.450;2023-12-04T04:02:28;102000;;;-0.53;72
84283;BME280;74440;52.600;21.450;2023-12-04T04:06:29;102000;;;-0.61;72
84283;BME280;74440;52.600;21.450;2023-12-04T04:10:31;102000;;;-0.67;72
84283;BME280;74440;52.600;21.450;2023-12-04T04:14:33;102000;;;-0.73;72
84283;BME280;74440;52.600;21.450;2023-12-04T04:18:34;102000;;;-0.73;72
84283;BME280;74440;52.600;21.450;2023-12-04T04:22:49;102000;;;-0.74;72
84283;BME280;74440;52.600;21.450;2023-12-04T04:26:50;102000;;;-0.74;72
84283;BME280;74440;52.600;21.450;2023-12-04T04:30:52;102000;;;-0.76;72
84283;BME280;74440;52.600;21.450;2023-12-04T04:34:53;102000;;;-0.79;72
84283;BME280;74440;52.600;21.450;2023-12-04T04:38:55;102000;;;-0.84;72
84283;BME280;74440;52.600;21.450;2023-12-04T04:42:56;102000;;;-0.82;72
84283;BME280;74440;52.600;21.450;2023-12-04T04:46:58;102000;;;-0.82;72
84283;BME280;74440;52.600;21.450;2023-12-04T04:50:59;102000;;;-0.84;72
84283;BME280;74440;52.600;21.450;2023-12-04T04:55:01;102000;;;-0.87;72
84283;BME280;74440;52.600;21.450;2023-12-04T04:59:18;102000;;;-0.88;72
84283;BME280;74440;52.600;21.450;2023-12-04T05:03:20;102000;;;-0.88;72
84283;BME280;74440;52.600;21.450;2023-12-04T05:07:21;102000;;;-0.89;72
84283;BME280;74440;52.600;21.450;2023-12-04T05:11:23;102000;;;-0.90;72
84283;BME280;74440;52.600;21.450;2023-12-04T05:15:25;102000;;;-0.89;72
84283;BME280;74440;52.600;21.450;2023-12-04T05:19:26;102000;;;-0.93;72
84283;BME280;74440;52.600;21.450;2023-12-04T05:23:28;102000;;;-0.95;72
84283;BME280;74440;52.600;21.450;2023-12-04T05:27:29;102000;;;-0.96;72
84283;BME280;74440;52.600;21.450;2023-12-04T05:31:31;102000;;;-1.02;73
84283;BME280;74440;52.600;21.450;2023-12-04T05:35:48;102000;;;-1.02;73
84283;BME280;74440;52.600;21.450;2023-12-04T05:39:53;102000;;;-1.05;73
84283;BME280;74440;52.600;21.450;2023-12-04T05:43:55;102000;;;-1.05;73
84283;BME280;74440;52.600;21.450;2023-12-04T05:47:56;102000;;;-1.02;73
84283;BME280;74440;52.600;21.450;2023-12-04T05:51:58;102000;;;-0.99;73
84283;BME280;74440;52.600;21.450;2023-12-04T05:55:59;102000;;;-1.00;73
84283;BME280;74440;52.600;21.450;2023-12-04T06:00:01;102000;;;-0.97;73
84283;BME280;74440;52.600;21.450;2023-12-04T06:04:03;102000;;;-0.99;73
84283;BME280;74440;52.600;21.450;2023-12-04T06:08:05;102000;;;-1.02;72
84283;BME280;74440;52.600;21.450;2023-12-04T06:12:18;102000;;;-1.02;72
84283;BME280;74440;52.600;21.450;2023-12-04T06:16:19;102000;;;-1.04;72
84283;BME280;74440;52.600;21.450;2023-12-04T06:20:21;102000;;;-1.07;72
84283;BME280;74440;52.600;21.450;2023-12-04T06:24:23;102000;;;-1.08;72
84283;BME280;74440;52.600;21.450;2023-12-04T06:28:25;102000;;;-1.06;72
84283;BME280;74440;52.600;21.450;2023-12-04T06:32:27;102100;;;-1.06;72
84283;BME280;74440;52.600;21.450;2023-12-04T06:36:31;102100;;;-0.97;72
84283;BME280;74440;52.600;21.450;2023-12-04T06:40:36;102100;;;-0.98;72
84283;BME280;74440;52.600;21.450;2023-12-04T06:44:39;102000;;;-1.03;72
84283;BME280;74440;52.600;21.450;2023-12-04T06:48:48;102100;;;-1.02;72
84283;BME280;74440;52.600;21.450;2023-12-04T06:52:52;102000;;;-1.05;72
84283;BME280;74440;52.600;21.450;2023-12-04T06:56:53;102100;;;-1.02;72
84283;BME280;74440;52.600;21.450;2023-12-04T07:00:55;102100;;;-1.00;72
84283;BME280;74440;52.600;21.450;2023-12-04T07:04:57;102100;;;-0.99;72
84283;BME280;74440;52.600;21.450;2023-12-04T07:08:58;102100;;;-0.95;72
84283;BME280;74440;52.600;21.450;2023-12-04T07:13:00;102100;;;-0.93;72
84283;BME280;74440;52.600;21.450;2023-12-04T07:17:01;102100;;;-0.92;72
84283;BME280;74440;52.600;21.450;2023-12-04T07:21:03;102100;;;-0.84;72
84283;BME280;74440;52.600;21.450;2023-12-04T07:25:18;102100;;;-0.82;71
84283;BME280;74440;52.600;21.450;2023-12-04T07:29:19;102100;;;-0.71;71
84283;BME280;74440;52.600;21.450;2023-12-04T07:33:21;102100;;;-0.65;71
84283;BME280;74440;52.600;21.450;2023-12-04T07:37:22;102100;;;-0.56;71
84283;BME280;74440;52.600;21.450;2023-12-04T07:41:24;102100;;;-0.50;71
84283;BME280;74440;52.600;21.450;2023-12-04T07:45:25;102100;;;-0.40;70
84283;BME280;74440;52.600;21.450;2023-12-04T07:49:28;102100;;;-0.40;70
84283;BME280;74440;52.600;21.450;2023-12-04T07:53:29;102100;;;-0.40;70
84283;BME280;74440;52.600;21.450;2023-12-04T07:57:31;102100;;;-0.42;69
84283;BME280;74440;52.600;21.450;2023-12-04T08:01:47;102100;;;-0.52;69
84283;BME280;74440;52.600;21.450;2023-12-04T08:05:52;102100;;;-0.57;69
84283;BME280;74440;52.600;21.450;2023-12-04T08:09:53;102100;;;-0.55;68
84283;BME280;74440;52.600;21.450;2023-12-04T08:13:55;102100;;;-0.47;68
84283;BME280;74440;52.600;21.450;2023-12-04T08:17:56;102100;;;-0.39;67
84283;BME280;74440;52.600;21.450;2023-12-04T16:43:45;102100;;;-1.11;71
84283;BME280;74440;52.600;21.450;2023-12-04T16:47:47;102100;;;-1.12;71
84283;BME280;74440;52.600;21.450;2023-12-04T16:51:50;102100;;;-1.15;71
84283;BME280;74440;52.600;21.450;2023-12-04T16:55:52;102100;;;-1.13;71
84283;BME280;74440;52.600;21.450;2023-12-04T16:59:54;102100;;;-1.13;71
84283;BME280;74440;52.600;21.450;2023-12-04T17:03:55;102100;;;-1.01;71
84283;BME280;74440;52.600;21.450;2023-12-04T17:07:57;102100;;;-0.99;71
84283;BME280;74440;52.600;21.450;2023-12-04T17:11:59;102100;;;-1.06;71
84283;BME280;74440;52.600;21.450;2023-12-04T17:16:10;102100;;;-1.03;71
84283;BME280;74440;52.600;21.450;2023-12-04T17:20:12;102100;;;-1.03;71
84283;BME280;74440;52.600;21.450;2023-12-04T17:24:13;102100;;;-1.02;71
84283;BME280;74440;52.600;21.450;2023-12-04T17:28:15;102100;;;-1.01;71
84283;BME280;74440;52.600;21.450;2023-12-04T17:32:17;102100;;;-1.07;71
84283;BME280;74440;52.600;21.450;2023-12-04T17:36:18;102100;;;-1.04;71
84283;BME280;74440;52.600;21.450;2023-12-04T17:40:20;102100;;;-0.99;71
84283;BME280;74440;52.600;21.450;2023-12-04T17:44:24;102100;;;-0.96;71
84283;BME280;74440;52.600;21.450;2023-12-04T17:48:25;102100;;;-0.91;71
84283;BME280;74440;52.600;21.450;2023-12-04T17:52:40;102100;;;-0.91;71
84283;BME280;74440;52.600;21.450;2023-12-04T17:56:42;102100;;;-0.88;71
84283;BME280;74440;52.600;21.450;2023-12-04T18:00:44;102100;;;-0.92;71
84283;BME280;74440;52.600;21.450;2023-12-04T18:04:46;102100;;;-0.94;71
84283;BME280;74440;52.600;21.450;2023-12-04T18:08:49;102100;;;-0.90;71
84283;BME280;74440;52.600;21.450;2023-12-04T18:12:50;102100;;;-0.90;71
84283;BME280;74440;52.600;21.450;2023-12-04T18:16:52;102100;;;-0.91;71
84283;BME280;74440;52.600;21.450;2023-12-04T18:20:54;102100;;;-0.87;71
84283;BME280;74440;52.600;21.450;2023-12-04T18:24:56;102100;;;-0.82;71
84283;BME280;74440;52.600;21.450;2023-12-04T18:29:10;102100;;;-0.81;71
84283;BME280;74440;52.600;21.450;2023-12-04T18:33:12;102100;;;-0.80;71
84283;BME280;74440;52.600;21.450;2023-12-04T18:37:25;102100;;;-0.76;70
84283;BME280;74440;52.600;21.450;2023-12-04T18:41:29;102100;;;-0.81;70
84283;BME280;74440;52.600;21.450;2023-12-04T18:45:31;102100;;;-0.84;70
84283;BME280;74440;52.600;21.450;2023-12-04T18:49:43;102100;;;-0.90;70
84283;BME280;74440;52.600;21.450;2023-12-04T18:53:49;102100;;;-1.04;71
84283;BME280;74440;52.600;21.450;2023-12-04T18:57:51;102100;;;-1.06;71
84283;BME280;74440;52.600;21.450;2023-12-04T19:01:53;102100;;;-1.13;71
84283;BME280;74440;52.600;21.450;2023-12-04T19:05:54;102100;;;-1.15;71
84283;BME280;74440;52.600;21.450;2023-12-04T19:09:56;102100;;;-1.14;71
84283;BME280;74440;52.600;21.450;2023-12-04T19:13:57;102100;;;-1.22;71
84283;BME280;74440;52.600;21.450;2023-12-04T19:18:00;102100;;;-1.24;71
84283;BME280;74440;52.600;21.450;2023-12-04T19:22:02;102100;;;-1.27;70
84283;BME280;74440;52.600;21.450;2023-12-04T19:26:12;102100;;;-1.38;71
84283;BME280;74440;52.600;21.450;2023-12-04T19:30:14;102100;;;-1.41;70
84283;BME280;74440;52.600;21.450;2023-12-04T19:34:16;102100;;;-1.53;71
84283;BME280;74440;52.600;21.450;2023-12-04T19:38:20;102100;;;-1.60;71
84283;BME280;74440;52.600;21.450;2023-12-04T19:42:22;102100;;;-1.66;71
84283;BME280;74440;52.600;21.450;2023-12-04T19:46:44;102100;;;-1.71;71
84283;BME280;74440;52.600;21.450;2023-12-04T19:50:46;102100;;;-1.70;71
84283;BME280;74440;52.600;21.450;2023-12-04T19:54:47;102100;;;-1.74;71
84283;BME280;74440;52.600;21.450;2023-12-04T19:58:49;102100;;;-1.72;71
84283;BME280;74440;52.600;21.450;2023-12-04T20:02:50;102100;;;-1.84;71
84283;BME280;74440;52.600;21.450;2023-12-04T20:06:52;102100;;;-1.89;71
84283;BME280;74440;52.600;21.450;2023-12-04T20:10:55;102100;;;-1.92;71
84283;BME280;74440;52.600;21.450;2023-12-04T20:14:57;102100;;;-1.97;71
84283;BME280;74440;52.600;21.450;2023-12-04T20:19:00;102100;;;-1.99;71
84283;BME280;74440;52.600;21.450;2023-12-04T20:23:15;102100;;;-1.95;71
84283;BME280;74440;52.600;21.450;2023-12-04T20:27:47;102100;;;-1.96;71
84283;BME280;74440;52.600;21.450;2023-12-04T20:31:49;102100;;;-2.03;71
84283;BME280;74440;52.600;21.450;2023-12-04T20:35:51;102100;;;-2.04;71
84283;BME280;74440;52.600;21.450;2023-12-04T20:39:55;102100;;;-2.13;71
84283;BME280;74440;52.600;21.450;2023-12-04T20:43:57;102100;;;-2.26;71
84283;BME280;74440;52.600;21.450;2023-12-04T20:47:58;102100;;;-2.30;71
84283;BME280;74440;52.600;21.450;2023-12-04T20:52:00;102100;;;-2.42;71
84283;BME280;74440;52.600;21.450;2023-12-04T20:56:02;102100;;;-2.43;71
84283;BME280;74440;52.600;21.450;2023-12-04T21:00:16;102100;;;-2.43;71
84283;BME280;74440;52.600;21.450;2023-12-04T21:04:18;102100;;;-2.50;71
84283;BME280;74440;52.600;21.450;2023-12-04T21:08:19;102100;;;-2.48;71
84283;BME280;74440;52.600;21.450;2023-12-04T21:12:22;102100;;;-2.46;71
84283;BME280;74440;52.600;21.450;2023-12-04T21:16:24;102100;;;-2.43;71
84283;BME280;74440;52.600;21.450;2023-12-04T21:20:28;102100;;;-2.43;71
84283;BME280;74440;52.600;21.450;2023-12-04T21:24:30;102100;;;-2.45;71
84283;BME280;74440;52.600;21.450;2023-12-04T21:28:32;102100;;;-2.42;71
84283;BME280;74440;52.600;21.450;2023-12-04T21:32:34;102100;;;-2.42;71
84283;BME280;74440;52.600;21.450;2023-12-04T21:36:45;102100;;;-2.37;71
84283;BME280;74440;52.600;21.450;2023-12-04T21:40:47;102100;;;-2.47;71
84283;BME280;74440;52.600;21.450;2023-12-04T21:44:48;102100;;;-2.53;71
84283;BME280;74440;52.600;21.450;2023-12-04T21:48:50;102100;;;-2.65;71
84283;BME280;74440;52.600;21.450;2023-12-04T21:52:53;102100;;;-2.74;71
84283;BME280;74440;52.600;21.450;2023-12-04T21:56:54;102100;;;-2.69;71
84283;BME280;74440;52.600;21.450;2023-12-04T22:00:57;102100;;;-2.69;71
84283;BME280;74440;52.600;21.450;2023-12-04T22:04:58;102100;;;-2.84;71
84283;BME280;74440;52.600;21.450;2023-12-04T22:09:00;102100;;;-3.01;71
84283;BME280;74440;52.600;21.450;2023-12-04T22:13:15;102100;;;-3.33;72
84283;BME280;74440;52.600;21.450;2023-12-04T22:17:26;102100;;;-3.41;72
84283;BME280;74440;52.600;21.450;2023-12-04T22:21:41;102100;;;-3.62;72
84283;BME280;74440;52.600;21.450;2023-12-04T22:25:43;102100;;;-3.72;73
84283;BME280;74440;52.600;21.450;2023-12-04T22:29:44;102100;;;-3.81;73
84283;BME280;74440;52.600;21.450;2023-12-04T22:33:56;102100;;;-3.83;73
84283;BME280;74440;52.600;21.450;2023-12-04T22:37:58;102000;;;-3.97;73
84283;BME280;74440;52.600;21.450;2023-12-04T22:42:02;102000;;;-4.01;73
84283;BME280;74440;52.600;21.450;2023-12-04T22:46:04;102000;;;-3.97;73
84283;BME280;74440;52.600;21.450;2023-12-04T22:50:07;102000;;;-4.10;73
84283;BME280;74440;52.600;21.450;2023-12-04T22:54:09;102000;;;-4.34;74
84283;BME280;74440;52.600;21.450;2023-12-04T22:58:10;102000;;;-4.54;75
84283;BME280;74440;52.600;21.450;2023-12-04T23:02:12;102000;;;-4.68;75
84283;BME280;74440;52.600;21.450;2023-12-04T23:06:14;102000;;;-4.74;75
84283;BME280;74440;52.600;21.450;2023-12-04T23:10:27;102000;;;-4.80;75
84283;BME280;74440;52.600;21.450;2023-12-04T23:14:28;102000;;;-4.21;80
84283;BME280;74440;52.600;21.450;2023-12-04T23:18:30;102000;;;-1.93;75
84283;BME280;74440;52.600;21.450;2023-12-04T23:22:31;102000;;;-2.74;74
84283;BME280;74440;52.600;21.450;2023-12-04T23:26:33;102000;;;-3.32;73
84283;BME280;74440;52.600;21.450;2023-12-04T23:30:35;102000;;;-3.71;73
84283;BME280;74440;52.600;21.450;2023-12-04T23:34:43;102000;;;-3.94;73
84283;BME280;74440;52.600;21.450;2023-12-04T23:38:46;102000;;;-4.18;73
84283;BME280;74440;52.600;21.450;2023-12-04T23:42:48;102000;;;-4.32;73
84283;BME280;74440;52.600;21.450;2023-12-04T23:46:58;102000;;;-4.42;73
84283;BME280;74440;52.600;21.450;2023-12-04T23:50:59;102000;;;-4.49;73
84283;BME280;74440;52.600;21.450;2023-12-04T23:55:01;102000;;;-4.60;73
84283;BME280;74440;52.600;21.450;2023-12-04T23:59:02;102000;;;-4.66;73
